sensor_id;sensor_type;location;lat;lon;timestamp;pressure;altitude;pressure_sealevel;temperature;humidity
70900;BME280;67902;52.154;5.430;2023-04-07T00:01:31;101528.59;;;8.11;97.64
70900;BME280;67902;52.154;5.430;2023-04-07T00:03:57;101530.22;;;8.12;97.58
70900;BME280;67902;52.154;5.430;2023-04-07T00:06:24;101539.16;;;8.12;97.76
70900;BME280;67902;52.154;5.430;2023-04-07T00:08:52;101537.72;;;8.10;97.89
70900;BME280;67902;52.154;5.430;2023-04-07T00:11:19;101530.66;;;8.09;97.98
70900;BME280;67902;52.154;5.430;2023-04-07T00:13:45;101536.25;;;8.07;98.39
70900;BME280;67902;52.154;5.430;2023-04-07T00:16:12;101540.00;;;8.06;98.18
70900;BME280;67902;52.154;5.430;2023-04-07T00:18:38;101537.28;;;8.06;97.26
70900;BME280;67902;52.154;5.430;2023-04-07T00:21:04;101535.44;;;8.07;97.83
70900;BME280;67902;52.154;5.430;2023-04-07T00:23:31;101538.97;;;8.07;97.98
70900;BME280;67902;52.154;5.430;2023-04-07T00:25:57;101541.25;;;8.04;97.10
70900;BME280;67902;52.154;5.430;2023-04-07T00:28:24;101546.88;;;8.02;97.60
70900;BME280;67902;52.154;5.430;2023-04-07T00:30:50;101549.56;;;8.02;97.86
70900;BME280;67902;52.154;5.430;2023-04-07T00:33:17;101548.50;;;8.03;97.93
70900;BME280;67902;52.154;5.430;2023-04-07T00:46:30;101541.25;;;7.97;97.05
70900;BME280;67902;52.154;5.430;2023-04-07T00:48:57;101544.34;;;7.94;97.60
70900;BME280;67902;52.154;5.430;2023-04-07T00:51:23;101542.50;;;7.95;97.05
70900;BME280;67902;52.154;5.430;2023-04-07T00:53:50;101543.56;;;7.94;97.46
70900;BME280;67902;52.154;5.430;2023-04-07T00:56:16;101543.75;;;7.92;97.27
70900;BME280;67902;52.154;5.430;2023-04-07T00:58:43;101551.84;;;7.92;97.53
70900;BME280;67902;52.154;5.430;2023-04-07T01:01:17;101547.50;;;7.91;97.16
70900;BME280;67902;52.154;5.430;2023-04-07T01:03:58;101546.66;;;7.91;97.33
70900;BME280;67902;52.154;5.430;2023-04-07T01:06:32;101551.84;;;7.92;97.29
70900;BME280;67902;52.154;5.430;2023-04-07T01:09:15;101546.44;;;7.92;97.78
70900;BME280;67902;52.154;5.430;2023-04-07T01:14:22;101551.00;;;7.92;97.14
70900;BME280;67902;52.154;5.430;2023-04-07T01:16:51;101547.28;;;7.93;97.26
70900;BME280;67902;52.154;5.430;2023-04-07T01:19:38;101548.13;;;7.93;97.80
70900;BME280;67902;52.154;5.430;2023-04-07T01:22:10;101548.13;;;7.93;97.96
70900;BME280;67902;52.154;5.430;2023-04-07T01:27:37;101543.97;;;7.91;97.21
70900;BME280;67902;52.154;5.430;2023-04-07T01:30:10;101549.13;;;7.92;97.57
70900;BME280;67902;52.154;5.430;2023-04-07T01:32:39;101545.00;;;7.90;97.39
70900;BME280;67902;52.154;5.430;2023-04-07T01:35:11;101550.38;;;7.90;97.69
70900;BME280;67902;52.154;5.430;2023-04-07T01:37:39;101547.69;;;7.90;97.34
70900;BME280;67902;52.154;5.430;2023-04-07T01:40:06;101550.38;;;7.90;97.23
70900;BME280;67902;52.154;5.430;2023-04-07T01:42:34;101551.22;;;7.90;97.79
70900;BME280;67902;52.154;5.430;2023-04-07T01:45:02;101552.06;;;7.91;97.82
70900;BME280;67902;52.154;5.430;2023-04-07T01:47:29;101547.50;;;7.91;97.27
70900;BME280;67902;52.154;5.430;2023-04-07T01:49:57;101556.41;;;7.92;97.10
70900;BME280;67902;52.154;5.430;2023-04-07T01:52:25;101551.00;;;7.92;97.84
70900;BME280;67902;52.154;5.430;2023-04-07T01:54:53;101551.00;;;7.92;97.79
70900;BME280;67902;52.154;5.430;2023-04-07T01:57:20;101546.44;;;7.92;97.13
70900;BME280;67902;52.154;5.430;2023-04-07T01:59:46;101557.22;;;7.92;97.41
70900;BME280;67902;52.154;5.430;2023-04-07T02:02:13;101551.84;;;7.92;97.65
70900;BME280;67902;52.154;5.430;2023-04-07T02:04:54;101551.84;;;7.92;96.96
70900;BME280;67902;52.154;5.430;2023-04-07T02:07:35;101550.81;;;7.93;97.37
70900;BME280;67902;52.154;5.430;2023-04-07T02:10:08;101548.94;;;7.94;97.11
70900;BME280;67902;52.154;5.430;2023-04-07T02:12:36;101553.28;;;7.95;96.97
70900;BME280;67902;52.154;5.430;2023-04-07T02:15:05;101547.28;;;7.93;97.20
70900;BME280;67902;52.154;5.430;2023-04-07T02:17:35;101548.13;;;7.93;97.29
70900;BME280;67902;52.154;5.430;2023-04-07T02:20:05;101547.88;;;7.95;96.90
70900;BME280;67902;52.154;5.430;2023-04-07T02:22:33;101549.97;;;7.93;97.40
70900;BME280;67902;52.154;5.430;2023-04-07T02:25:00;101556.81;;;7.95;97.46
70900;BME280;67902;52.154;5.430;2023-04-07T02:27:26;101555.78;;;7.96;97.30
70900;BME280;67902;52.154;5.430;2023-04-07T02:29:53;101559.50;;;7.95;97.61
70900;BME280;67902;52.154;5.430;2023-04-07T02:32:19;101558.47;;;7.96;96.76
70900;BME280;67902;52.154;5.430;2023-04-07T02:34:46;101555.56;;;7.98;97.49
70900;BME280;67902;52.154;5.430;2023-04-07T02:37:12;101564.72;;;7.97;97.27
70900;BME280;67902;52.154;5.430;2023-04-07T02:39:38;101560.53;;;7.94;97.68
70900;BME280;67902;52.154;5.430;2023-04-07T02:42:05;101561.59;;;7.93;96.92
70900;BME280;67902;52.154;5.430;2023-04-07T02:44:31;101555.97;;;7.95;97.31
70900;BME280;67902;52.154;5.430;2023-04-07T02:46:58;101551.66;;;7.94;97.16
70900;BME280;67902;52.154;5.430;2023-04-07T02:49:24;101555.16;;;7.94;96.91
70900;BME280;67902;52.154;5.430;2023-04-07T02:51:50;101551.41;;;7.95;97.12
70900;BME280;67902;52.154;5.430;2023-04-07T02:59:33;101564.72;;;7.97;97.29
70900;BME280;67902;52.154;5.430;2023-04-07T03:02:00;101556.81;;;7.95;96.71
70900;BME280;67902;52.154;5.430;2023-04-07T03:04:26;101553.09;;;7.96;97.18
70900;BME280;67902;52.154;5.430;2023-04-07T03:06:56;101563.88;;;7.96;96.77
70900;BME280;67902;52.154;5.430;2023-04-07T03:12:05;101564.28;;;7.93;97.12
70900;BME280;67902;52.154;5.430;2023-04-07T03:14:31;101568.84;;;7.93;97.45
70900;BME280;67902;52.154;5.430;2023-04-07T03:16:57;101575.28;;;7.92;96.58
70900;BME280;67902;52.154;5.430;2023-04-07T03:19:24;101564.28;;;7.93;96.56
70900;BME280;67902;52.154;5.430;2023-04-07T03:21:50;101569.69;;;7.93;96.31
70900;BME280;67902;52.154;5.430;2023-04-07T03:24:17;101565.31;;;7.92;96.33
70900;BME280;67902;52.154;5.430;2023-04-07T03:26:43;101565.53;;;7.91;96.17
70900;BME280;67902;52.154;5.430;2023-04-07T03:29:10;101563.47;;;7.93;96.81
70900;BME280;67902;52.154;5.430;2023-04-07T03:31:36;101565.94;;;7.94;96.29
70900;BME280;67902;52.154;5.430;2023-04-07T03:34:03;101566.56;;;7.96;96.87
70900;BME280;67902;52.154;5.430;2023-04-07T03:36:30;101580.06;;;7.96;97.00
70900;BME280;67902;52.154;5.430;2023-04-07T03:38:57;101577.34;;;7.96;96.46
70900;BME280;67902;52.154;5.430;2023-04-07T03:41:23;101579.22;;;7.96;96.68
70900;BME280;67902;52.154;5.430;2023-04-07T03:43:50;101576.53;;;7.96;96.71
70900;BME280;67902;52.154;5.430;2023-04-07T03:46:18;101576.72;;;7.94;96.74
70900;BME280;67902;52.154;5.430;2023-04-07T03:48:46;101570.72;;;7.92;96.50
70900;BME280;67902;52.154;5.430;2023-04-07T03:51:13;101578.59;;;7.94;96.79
70900;BME280;67902;52.154;5.430;2023-04-07T03:53:39;101574.84;;;7.95;96.39
70900;BME280;67902;52.154;5.430;2023-04-07T03:56:06;101566.75;;;7.95;96.23
70900;BME280;67902;52.154;5.430;2023-04-07T03:58:32;101571.13;;;7.96;96.83
70900;BME280;67902;52.154;5.430;2023-04-07T04:00:59;101566.75;;;7.95;96.70
70900;BME280;67902;52.154;5.430;2023-04-07T04:03:25;101569.28;;;7.96;96.97
70900;BME280;67902;52.154;5.430;2023-04-07T04:05:52;101570.09;;;7.97;96.44
70900;BME280;67902;52.154;5.430;2023-04-07T04:08:19;101568.22;;;7.97;96.46
70900;BME280;67902;52.154;5.430;2023-04-07T04:10:46;101568.22;;;7.97;96.41
70900;BME280;67902;52.154;5.430;2023-04-07T04:13:12;101568.44;;;7.96;96.16
70900;BME280;67902;52.154;5.430;2023-04-07T04:15:38;101570.09;;;7.97;96.95
70900;BME280;67902;52.154;5.430;2023-04-07T04:18:05;101577.34;;;7.96;96.34
70900;BME280;67902;52.154;5.430;2023-04-07T04:20:32;101576.72;;;7.94;96.61
70900;BME280;67902;52.154;5.430;2023-04-07T04:22:58;101580.25;;;7.95;96.65
70900;BME280;67902;52.154;5.430;2023-04-07T04:25:25;101576.72;;;7.94;96.25
70900;BME280;67902;52.154;5.430;2023-04-07T04:27:51;101587.50;;;7.94;96.37
70900;BME280;67902;52.154;5.430;2023-04-07T04:30:18;101589.16;;;7.95;96.49
70900;BME280;67902;52.154;5.430;2023-04-07T04:32:44;101588.97;;;7.97;96.83
70900;BME280;67902;52.154;5.430;2023-04-07T04:35:11;101593.53;;;7.96;96.71
70900;BME280;67902;52.154;5.430;2023-04-07T04:37:37;101592.47;;;7.97;96.27
70900;BME280;67902;52.154;5.430;2023-04-07T04:40:04;101596.84;;;7.98;96.94
70900;BME280;67902;52.154;5.430;2023-04-07T04:42:34;101599.53;;;7.98;96.84
70900;BME280;67902;52.154;5.430;2023-04-07T04:45:00;101600.56;;;7.97;96.73
70900;BME280;67902;52.154;5.430;2023-04-07T04:47:27;101608.66;;;7.97;96.62
70900;BME280;67902;52.154;5.430;2023-04-07T04:49:53;101608.66;;;7.97;96.96
70900;BME280;67902;52.154;5.430;2023-04-07T04:52:20;101608.66;;;7.97;96.81
70900;BME280;67902;52.154;5.430;2023-04-07T04:54:47;101607.03;;;7.96;96.38
70900;BME280;67902;52.154;5.430;2023-04-07T04:57:13;101615.72;;;7.98;96.46
70900;BME280;67902;52.154;5.430;2023-04-07T05:46:39;101641.84;;;7.98;95.69
70900;BME280;67902;52.154;5.430;2023-04-07T05:49:06;101636.47;;;7.98;96.18
70900;BME280;67902;52.154;5.430;2023-04-07T05:51:38;101646.81;;;7.94;96.46
70900;BME280;67902;52.154;5.430;2023-04-07T05:54:04;101646.03;;;7.94;96.45
70900;BME280;67902;52.154;5.430;2023-04-07T05:56:32;101643.94;;;7.96;96.22
70900;BME280;67902;52.154;5.430;2023-04-07T05:58:58;101653.47;;;7.98;95.80
70900;BME280;67902;52.154;5.430;2023-04-07T06:01:25;101653.06;;;8.01;96.20
70900;BME280;67902;52.154;5.430;2023-04-07T06:03:53;101652.66;;;8.04;96.82
70900;BME280;67902;52.154;5.430;2023-04-07T06:06:19;101653.91;;;8.02;95.94
70900;BME280;67902;52.154;5.430;2023-04-07T06:08:46;101661.78;;;8.03;96.30
70900;BME280;67902;52.154;5.430;2023-04-07T06:11:12;101658.66;;;8.06;96.63
70900;BME280;67902;52.154;5.430;2023-04-07T06:13:39;101660.53;;;8.06;96.36
70900;BME280;67902;52.154;5.430;2023-04-07T06:16:06;101669.03;;;8.03;96.73
70900;BME280;67902;52.154;5.430;2023-04-07T06:18:32;101667.16;;;8.03;96.63
70900;BME280;67902;52.154;5.430;2023-04-07T06:20:59;101674.22;;;8.04;95.70
70900;BME280;67902;52.154;5.430;2023-04-07T06:23:25;101673.22;;;8.05;96.20
70900;BME280;67902;52.154;5.430;2023-04-07T06:25:52;101663.47;;;8.11;95.95
70900;BME280;67902;52.154;5.430;2023-04-07T06:28:18;101667.19;;;8.16;96.35
70900;BME280;67902;52.154;5.430;2023-04-07T06:30:46;101677.56;;;8.20;96.33
70900;BME280;67902;52.154;5.430;2023-04-07T06:33:12;101675.47;;;8.22;95.67
70900;BME280;67902;52.154;5.430;2023-04-07T06:35:39;101677.56;;;8.20;96.27
70900;BME280;67902;52.154;5.430;2023-04-07T06:38:06;101680.03;;;8.21;96.28
70900;BME280;67902;52.154;5.430;2023-04-07T06:45:43;101683.78;;;8.20;96.45
70900;BME280;67902;52.154;5.430;2023-04-07T06:53:34;101689.19;;;8.40;95.62
70900;BME280;67902;52.154;5.430;2023-04-07T06:56:05;101695.84;;;8.44;95.39
70900;BME280;67902;52.154;5.430;2023-04-07T06:58:33;101693.53;;;8.54;95.80
70900;BME280;67902;52.154;5.430;2023-04-07T07:03:35;101703.69;;;8.65;95.08
70900;BME280;67902;52.154;5.430;2023-04-07T07:16:47;101712.41;;;8.73;94.83
70900;BME280;67902;52.154;5.430;2023-04-07T07:19:19;101709.50;;;8.75;94.62
70900;BME280;67902;52.154;5.430;2023-04-07T07:21:46;101714.69;;;8.83;94.77
70900;BME280;67902;52.154;5.430;2023-04-07T07:24:12;101715.28;;;8.92;94.20
70900;BME280;67902;52.154;5.430;2023-04-07T07:26:39;101721.28;;;9.00;94.34
70900;BME280;67902;52.154;5.430;2023-04-07T07:29:09;101720.28;;;8.95;93.53
70900;BME280;67902;52.154;5.430;2023-04-07T07:31:35;101724.88;;;8.81;93.57
70900;BME280;67902;52.154;5.430;2023-04-07T07:34:02;101728.00;;;8.78;93.96
70900;BME280;67902;52.154;5.430;2023-04-07T07:36:28;101725.28;;;8.78;94.30
70900;BME280;67902;52.154;5.430;2023-04-07T07:38:55;101727.34;;;8.76;94.29
70900;BME280;67902;52.154;5.430;2023-04-07T07:41:21;101728.59;;;8.73;93.87
70900;BME280;67902;52.154;5.430;2023-04-07T07:43:48;101732.13;;;8.74;94.16
70900;BME280;67902;52.154;5.430;2023-04-07T07:46:14;101735.88;;;8.80;93.54
70900;BME280;67902;52.154;5.430;2023-04-07T07:48:41;101739.00;;;8.83;93.82
70900;BME280;67902;52.154;5.430;2023-04-07T07:51:07;101740.03;;;8.82;93.14
70900;BME280;67902;52.154;5.430;2023-04-07T07:53:34;101742.31;;;8.85;93.76
70900;BME280;67902;52.154;5.430;2023-04-07T07:56:00;101742.91;;;8.87;94.01
70900;BME280;67902;52.154;5.430;2023-04-07T07:58:27;101747.66;;;8.98;93.36
70900;BME280;67902;52.154;5.430;2023-04-07T08:00:53;101752.44;;;9.03;93.55
70900;BME280;67902;52.154;5.430;2023-04-07T08:03:19;101747.25;;;9.01;93.39
70900;BME280;67902;52.154;5.430;2023-04-07T08:05:48;101760.56;;;9.09;92.94
70900;BME280;67902;52.154;5.430;2023-04-07T08:08:15;101753.06;;;9.11;92.56
70900;BME280;67902;52.154;5.430;2023-04-07T08:10:41;101755.34;;;9.14;92.08
70900;BME280;67902;52.154;5.430;2023-04-07T08:13:07;101765.72;;;9.17;92.31
70900;BME280;67902;52.154;5.430;2023-04-07T08:15:34;101764.66;;;9.18;92.10
70900;BME280;67902;52.154;5.430;2023-04-07T08:18:00;101768.38;;;9.30;92.53
70900;BME280;67902;52.154;5.430;2023-04-07T08:20:30;101770.06;;;9.25;92.26
70900;BME280;67902;52.154;5.430;2023-04-07T08:22:57;101772.53;;;9.26;91.62
70900;BME280;67902;52.154;5.430;2023-04-07T08:25:24;101772.13;;;9.29;91.97
70900;BME280;67902;52.154;5.430;2023-04-07T08:27:51;101777.72;;;9.35;91.84
70900;BME280;67902;52.154;5.430;2023-04-07T08:30:17;101776.84;;;9.41;91.24
70900;BME280;67902;52.154;5.430;2023-04-07T08:32:46;101779.56;;;9.41;91.44
70900;BME280;67902;52.154;5.430;2023-04-07T08:35:13;101769.56;;;9.48;90.60
70900;BME280;67902;52.154;5.430;2023-04-07T08:37:39;101776.59;;;9.55;90.73
70900;BME280;67902;52.154;5.430;2023-04-07T08:40:06;101779.03;;;9.76;89.89
70900;BME280;67902;52.154;5.430;2023-04-07T08:42:34;101780.13;;;10.00;89.31
70900;BME280;67902;52.154;5.430;2023-04-07T08:45:05;101777.81;;;10.04;88.82
70900;BME280;67902;52.154;5.430;2023-04-07T08:47:34;101775.50;;;10.07;88.79
70900;BME280;67902;52.154;5.430;2023-04-07T08:50:03;101780.00;;;10.26;88.46
70900;BME280;67902;52.154;5.430;2023-04-07T08:52:39;101781.44;;;10.29;87.51
70900;BME280;67902;52.154;5.430;2023-04-07T08:55:07;101778.69;;;10.35;88.26
70900;BME280;67902;52.154;5.430;2023-04-07T08:57:35;101791.31;;;10.41;86.24
70900;BME280;67902;52.154;5.430;2023-04-07T09:00:04;101783.66;;;10.38;87.02
70900;BME280;67902;52.154;5.430;2023-04-07T09:02:35;101795.53;;;10.37;86.60
70900;BME280;67902;52.154;5.430;2023-04-07T09:05:03;101798.09;;;10.26;86.69
70900;BME280;67902;52.154;5.430;2023-04-07T09:07:31;101802.47;;;10.27;87.20
70900;BME280;67902;52.154;5.430;2023-04-07T09:09:58;101805.13;;;10.33;87.03
70900;BME280;67902;52.154;5.430;2023-04-07T09:12:28;101801.53;;;10.39;86.74
70900;BME280;67902;52.154;5.430;2023-04-07T09:14:54;101808.66;;;10.34;86.17
70900;BME280;67902;52.154;5.430;2023-04-07T09:17:21;101806.56;;;10.36;86.46
70900;BME280;67902;52.154;5.430;2023-04-07T09:19:48;101811.50;;;10.45;86.54
70900;BME280;67902;52.154;5.430;2023-04-07T09:22:14;101819.19;;;10.48;86.25
70900;BME280;67902;52.154;5.430;2023-04-07T09:43:24;101812.81;;;10.36;86.03
70900;BME280;67902;52.154;5.430;2023-04-07T09:45:51;101818.22;;;10.36;86.37
70900;BME280;67902;52.154;5.430;2023-04-07T09:59:47;101823.09;;;10.53;85.02
70900;BME280;67902;52.154;5.430;2023-04-07T10:02:14;101824.59;;;10.48;84.80
70900;BME280;67902;52.154;5.430;2023-04-07T10:10:05;101823.94;;;10.53;83.51
70900;BME280;67902;52.154;5.430;2023-04-07T10:12:34;101825.44;;;10.49;84.34
70900;BME280;67902;52.154;5.430;2023-04-07T10:15:02;101826.47;;;10.48;84.62
70900;BME280;67902;52.154;5.430;2023-04-07T10:17:30;101827.31;;;10.48;84.39
70900;BME280;67902;52.154;5.430;2023-04-07T10:19:58;101828.19;;;10.42;84.40
70900;BME280;67902;52.154;5.430;2023-04-07T10:22:26;101840.13;;;10.35;85.09
70900;BME280;67902;52.154;5.430;2023-04-07T10:27:28;101842.94;;;10.15;84.27
70900;BME280;67902;52.154;5.430;2023-04-07T10:29:56;101849.22;;;10.03;83.54
70900;BME280;67902;52.154;5.430;2023-04-07T10:32:23;101849.69;;;9.93;84.68
70900;BME280;67902;52.154;5.430;2023-04-07T10:37:19;101856.69;;;10.07;85.30
70900;BME280;67902;52.154;5.430;2023-04-07T10:39:50;101861.88;;;10.09;84.27
70900;BME280;67902;52.154;5.430;2023-04-07T10:45:06;101861.22;;;10.20;84.39
70900;BME280;67902;52.154;5.430;2023-04-07T10:50:23;101864.78;;;10.20;84.28
70900;BME280;67902;52.154;5.430;2023-04-07T10:53:07;101867.44;;;10.27;84.56
70900;BME280;67902;52.154;5.430;2023-04-07T10:55:36;101856.13;;;10.36;84.52
70900;BME280;67902;52.154;5.430;2023-04-07T10:58:18;101868.38;;;10.45;84.57
70900;BME280;67902;52.154;5.430;2023-04-07T11:03:40;101869.06;;;10.34;84.24
70900;BME280;67902;52.154;5.430;2023-04-07T11:06:13;101870.94;;;10.34;84.27
70900;BME280;67902;52.154;5.430;2023-04-07T11:08:44;101869.94;;;10.22;83.59
70900;BME280;67902;52.154;5.430;2023-04-07T11:11:36;101867.06;;;10.17;83.39
70900;BME280;67902;52.154;5.430;2023-04-07T11:14:05;101879.56;;;10.11;83.70
70900;BME280;67902;52.154;5.430;2023-04-07T11:16:41;101878.94;;;10.09;83.62
70900;BME280;67902;52.154;5.430;2023-04-07T11:19:08;101882.03;;;10.19;83.84
70900;BME280;67902;52.154;5.430;2023-04-07T11:21:34;101884.28;;;10.35;84.78
70900;BME280;67902;52.154;5.430;2023-04-07T11:24:02;101878.78;;;10.48;83.87
70900;BME280;67902;52.154;5.430;2023-04-07T11:26:36;101883.53;;;10.53;83.13
70900;BME280;67902;52.154;5.430;2023-04-07T11:29:03;101883.06;;;10.63;83.99
70900;BME280;67902;52.154;5.430;2023-04-07T11:31:30;101888.38;;;10.76;82.93
70900;BME280;67902;52.154;5.430;2023-04-07T11:34:02;101881.88;;;10.83;83.90
70900;BME280;67902;52.154;5.430;2023-04-07T11:36:39;101891.38;;;10.92;82.80
70900;BME280;67902;52.154;5.430;2023-04-07T11:39:18;101884.91;;;10.93;83.28
70900;BME280;67902;52.154;5.430;2023-04-07T11:41:47;101888.66;;;10.92;82.18
70900;BME280;67902;52.154;5.430;2023-04-07T11:44:14;101894.94;;;10.86;82.62
70900;BME280;67902;52.154;5.430;2023-04-07T11:46:55;101892.47;;;10.85;82.30
70900;BME280;67902;52.154;5.430;2023-04-07T11:49:22;101898.59;;;10.74;81.11
70900;BME280;67902;52.154;5.430;2023-04-07T11:51:57;101898.88;;;10.66;82.02
70900;BME280;67902;52.154;5.430;2023-04-07T11:54:24;101894.06;;;10.68;82.36
70900;BME280;67902;52.154;5.430;2023-04-07T11:56:50;101890.88;;;10.77;81.63
70900;BME280;67902;52.154;5.430;2023-04-07T11:59:22;101900.34;;;10.93;82.34
70900;BME280;67902;52.154;5.430;2023-04-07T12:01:49;101898.66;;;10.92;81.15
70900;BME280;67902;52.154;5.430;2023-04-07T12:04:16;101902.84;;;10.94;81.70
70900;BME280;67902;52.154;5.430;2023-04-07T12:06:45;101900.13;;;10.94;80.86
70900;BME280;67902;52.154;5.430;2023-04-07T12:09:29;101913.59;;;11.01;80.58
70900;BME280;67902;52.154;5.430;2023-04-07T12:11:56;101914.25;;;11.03;80.15
70900;BME280;67902;52.154;5.430;2023-04-07T12:14:24;101913.59;;;11.01;81.07
70900;BME280;67902;52.154;5.430;2023-04-07T12:16:50;101912.41;;;10.97;81.33
70900;BME280;67902;52.154;5.430;2023-04-07T12:19:18;101921.13;;;10.99;80.08
70900;BME280;67902;52.154;5.430;2023-04-07T12:21:44;101915.72;;;10.99;79.88
70900;BME280;67902;52.154;5.430;2023-04-07T12:24:11;101919.66;;;11.03;80.59
70900;BME280;67902;52.154;5.430;2023-04-07T12:26:38;101921.69;;;11.07;79.61
70900;BME280;67902;52.154;5.430;2023-04-07T12:29:04;101932.03;;;11.17;79.28
70900;BME280;67902;52.154;5.430;2023-04-07T12:31:32;101922.56;;;11.26;79.08
70900;BME280;67902;52.154;5.430;2023-04-07T12:33:58;101925.91;;;11.28;78.82
70900;BME280;67902;52.154;5.430;2023-04-07T12:36:25;101932.53;;;11.32;78.88
70900;BME280;67902;52.154;5.430;2023-04-07T12:38:55;101927.66;;;11.16;77.77
70900;BME280;67902;52.154;5.430;2023-04-07T12:41:24;101932.31;;;11.09;78.64
70900;BME280;67902;52.154;5.430;2023-04-07T12:43:51;101936.53;;;11.05;79.91
70900;BME280;67902;52.154;5.430;2023-04-07T12:46:18;101937.78;;;11.02;80.36
70900;BME280;67902;52.154;5.430;2023-04-07T12:48:45;101945.75;;;10.97;79.78
70900;BME280;67902;52.154;5.430;2023-04-07T12:51:12;101946.22;;;10.88;79.94
70900;BME280;67902;52.154;5.430;2023-04-07T12:53:39;101940.22;;;10.86;79.68
70900;BME280;67902;52.154;5.430;2023-04-07T12:56:05;101940.38;;;10.91;79.66
70900;BME280;67902;52.154;5.430;2023-04-07T12:58:32;101945.69;;;11.04;81.40
70900;BME280;67902;52.154;5.430;2023-04-07T13:00:59;101946.25;;;11.13;80.77
70900;BME280;67902;52.154;5.430;2023-04-07T13:03:26;101960.31;;;11.03;79.71
70900;BME280;67902;52.154;5.430;2023-04-07T13:05:52;101956.19;;;10.94;79.38
70900;BME280;67902;52.154;5.430;2023-04-07T13:08:20;101955.94;;;10.64;79.53
70900;BME280;67902;52.154;5.430;2023-04-07T13:10:47;101969.00;;;10.42;79.67
70900;BME280;67902;52.154;5.430;2023-04-07T13:13:13;101961.97;;;10.28;78.86
70900;BME280;67902;52.154;5.430;2023-04-07T13:15:40;101964.72;;;10.15;80.28
70900;BME280;67902;52.154;5.430;2023-04-07T13:18:06;101961.41;;;10.13;82.12
70900;BME280;67902;52.154;5.430;2023-04-07T13:20:33;101961.41;;;10.13;81.88
70900;BME280;67902;52.154;5.430;2023-04-07T13:22:59;101969.09;;;10.16;81.65
70900;BME280;67902;52.154;5.430;2023-04-07T13:25:33;101968.06;;;10.17;82.38
70900;BME280;67902;52.154;5.430;2023-04-07T13:27:59;101975.75;;;10.20;82.73
70900;BME280;67902;52.154;5.430;2023-04-07T13:30:26;101964.91;;;10.27;82.94
70900;BME280;67902;52.154;5.430;2023-04-07T13:32:52;101969.47;;;10.26;83.39
70900;BME280;67902;52.154;5.430;2023-04-07T13:35:19;101971.75;;;10.29;83.19
70900;BME280;67902;52.154;5.430;2023-04-07T13:37:46;101969.06;;;10.29;84.19
70900;BME280;67902;52.154;5.430;2023-04-07T13:40:12;101970.09;;;10.28;83.44
70900;BME280;67902;52.154;5.430;2023-04-07T13:42:39;101972.78;;;10.28;83.42
70900;BME280;67902;52.154;5.430;2023-04-07T13:45:06;101973.63;;;10.29;83.89
70900;BME280;67902;52.154;5.430;2023-04-07T13:47:32;101968.00;;;10.30;83.40
70900;BME280;67902;52.154;5.430;2023-04-07T13:50:01;101972.38;;;10.31;83.03
70900;BME280;67902;52.154;5.430;2023-04-07T13:52:27;101977.34;;;10.34;83.48
70900;BME280;67902;52.154;5.430;2023-04-07T13:54:54;101976.31;;;10.35;83.60
70900;BME280;67902;52.154;5.430;2023-04-07T13:57:20;101978.63;;;10.32;81.86
70900;BME280;67902;52.154;5.430;2023-04-07T13:59:48;101974.47;;;10.29;83.07
70900;BME280;67902;52.154;5.430;2023-04-07T14:02:18;101972.72;;;10.41;82.74
70900;BME280;67902;52.154;5.430;2023-04-07T14:04:45;101976.84;;;10.51;82.59
70900;BME280;67902;52.154;5.430;2023-04-07T14:07:12;101979.31;;;10.59;83.08
70900;BME280;67902;52.154;5.430;2023-04-07T14:09:38;101979.28;;;10.65;83.45
70900;BME280;67902;52.154;5.430;2023-04-07T14:12:05;101972.09;;;10.84;83.43
70900;BME280;67902;52.154;5.430;2023-04-07T14:14:31;101970.69;;;11.06;82.75
70900;BME280;67902;52.154;5.430;2023-04-07T14:16:58;101971.81;;;11.23;82.07
70900;BME280;67902;52.154;5.430;2023-04-07T14:19:24;101970.50;;;11.32;80.84
70900;BME280;67902;52.154;5.430;2023-04-07T14:21:51;101971.78;;;11.30;80.00
70900;BME280;67902;52.154;5.430;2023-04-07T14:24:17;101980.75;;;11.30;79.99
70900;BME280;67902;52.154;5.430;2023-04-07T14:26:44;101976.97;;;11.31;80.48
70900;BME280;67902;52.154;5.430;2023-04-07T14:29:12;101985.03;;;11.13;78.95
70900;BME280;67902;52.154;5.430;2023-04-07T14:31:39;101978.75;;;10.88;80.68
70900;BME280;67902;52.154;5.430;2023-04-07T14:34:06;101982.50;;;10.87;81.48
70900;BME280;67902;52.154;5.430;2023-04-07T14:36:33;101987.97;;;10.80;81.83
70900;BME280;67902;52.154;5.430;2023-04-07T14:38:59;101986.97;;;10.75;82.99
70900;BME280;67902;52.154;5.430;2023-04-07T14:41:26;101980.13;;;10.66;82.83
70900;BME280;67902;52.154;5.430;2023-04-07T14:43:53;101983.09;;;10.58;84.12
70900;BME280;67902;52.154;5.430;2023-04-07T14:46:22;101990.63;;;10.49;84.09
70900;BME280;67902;52.154;5.430;2023-04-07T14:48:50;101986.47;;;10.46;83.82
70900;BME280;67902;52.154;5.430;2023-04-07T14:51:20;101987.75;;;10.37;84.81
70900;BME280;67902;52.154;5.430;2023-04-07T14:53:46;101993.84;;;10.33;84.48
70900;BME280;67902;52.154;5.430;2023-04-07T14:56:18;101992.34;;;10.30;85.75
70900;BME280;67902;52.154;5.430;2023-04-07T14:58:46;101992.78;;;10.27;85.64
70900;BME280;67902;52.154;5.430;2023-04-07T15:01:13;102001.13;;;10.26;85.73
70900;BME280;67902;52.154;5.430;2023-04-07T15:03:39;102004.06;;;10.24;85.08
70900;BME280;67902;52.154;5.430;2023-04-07T15:06:07;102007.44;;;10.13;85.12
70900;BME280;67902;52.154;5.430;2023-04-07T15:08:34;101997.19;;;10.09;85.45
70900;BME280;67902;52.154;5.430;2023-04-07T15:11:03;102000.31;;;10.06;85.90
70900;BME280;67902;52.154;5.430;2023-04-07T15:13:30;102005.75;;;9.99;85.81
70900;BME280;67902;52.154;5.430;2023-04-07T15:16:05;101999.91;;;10.02;86.77
70900;BME280;67902;52.154;5.430;2023-04-07T15:18:32;102011.97;;;10.00;86.25
70900;BME280;67902;52.154;5.430;2023-04-07T15:20:58;102015.09;;;9.97;86.17
70900;BME280;67902;52.154;5.430;2023-04-07T15:23:24;102012.63;;;9.95;86.95